sensor_id;sensor_type;location;lat;lon;timestamp;temperature;humidity
25945;SHT31;13742;49.306;8.636;2023-11-21T00:00:13;9.85;90.30
25945;SHT31;13742;49.306;8.636;2023-11-21T00:01:08;9.85;90.19
25945;SHT31;13742;49.306;8.636;2023-11-21T00:02:08;9.85;90.66
25945;SHT31;13742;49.306;8.636;2023-11-21T00:03:08;9.86;90.64
25945;SHT31;13742;49.306;8.636;2023-11-21T00:04:08;9.85;90.80
25945;SHT31;13742;49.306;8.636;2023-11-21T00:05:09;9.85;90.57
25945;SHT31;13742;49.306;8.636;2023-11-21T00:06:11;9.81;90.56
25945;SHT31;13742;49.306;8.636;2023-11-21T00:07:08;9.86;90.86
25945;SHT31;13742;49.306;8.636;2023-11-21T00:08:08;9.85;90.94
25945;SHT31;13742;49.306;8.636;2023-11-21T00:09:08;9.86;90.61
25945;SHT31;13742;49.306;8.636;2023-11-21T00:10:09;9.89;90.90
25945;SHT31;13742;49.306;8.636;2023-11-21T00:11:08;9.91;90.90
25945;SHT31;13742;49.306;8.636;2023-11-21T00:12:10;9.88;90.85
25945;SHT31;13742;49.306;8.636;2023-11-21T00:13:08;9.88;90.82
25945;SHT31;13742;49.306;8.636;2023-11-21T00:14:08;9.89;90.98
25945;SHT31;13742;49.306;8.636;2023-11-21T00:15:11;9.89;90.87
25945;SHT31;13742;49.306;8.636;2023-11-21T00:16:08;9.89;90.93
25945;SHT31;13742;49.306;8.636;2023-11-21T00:17:08;9.89;91.10
25945;SHT31;13742;49.306;8.636;2023-11-21T00:18:08;9.91;90.82
25945;SHT31;13742;49.306;8.636;2023-11-21T00:19:08;9.88;90.70
25945;SHT31;13742;49.306;8.636;2023-11-21T00:20:08;9.91;90.89
25945;SHT31;13742;49.306;8.636;2023-11-21T00:21:09;9.91;90.88
25945;SHT31;13742;49.306;8.636;2023-11-21T00:22:09;9.92;90.84
25945;SHT31;13742;49.306;8.636;2023-11-21T00:23:09;9.91;90.57
25945;SHT31;13742;49.306;8.636;2023-11-21T00:24:08;9.91;90.68
25945;SHT31;13742;49.306;8.636;2023-11-21T00:25:09;9.88;90.74
25945;SHT31;13742;49.306;8.636;2023-11-21T00:26:08;9.88;90.99
25945;SHT31;13742;49.306;8.636;2023-11-21T00:27:08;9.89;90.73
25945;SHT31;13742;49.306;8.636;2023-11-21T00:28:08;9.88;91.06
25945;SHT31;13742;49.306;8.636;2023-11-21T00:29:08;9.91;91.40
25945;SHT31;13742;49.306;8.636;2023-11-21T00:30:09;9.92;91.11
25945;SHT31;13742;49.306;8.636;2023-11-21T00:31:08;9.92;90.87
25945;SHT31;13742;49.306;8.636;2023-11-21T00:32:09;9.89;90.79
25945;SHT31;13742;49.306;8.636;2023-11-21T00:33:08;9.91;90.96
25945;SHT31;13742;49.306;8.636;2023-11-21T00:34:08;9.93;91.23
25945;SHT31;13742;49.306;8.636;2023-11-21T00:35:08;9.92;90.99
25945;SHT31;13742;49.306;8.636;2023-11-21T00:36:09;9.92;90.73
25945;SHT31;13742;49.306;8.636;2023-11-21T00:37:08;9.92;90.85
25945;SHT31;13742;49.306;8.636;2023-11-21T00:38:08;9.95;91.01
25945;SHT31;13742;49.306;8.636;2023-11-21T00:39:08;9.93;91.07
25945;SHT31;13742;49.306;8.636;2023-11-21T00:40:10;9.92;91.15
25945;SHT31;13742;49.306;8.636;2023-11-21T00:41:08;9.93;91.08
25945;SHT31;13742;49.306;8.636;2023-11-21T00:42:08;9.92;91.15
25945;SHT31;13742;49.306;8.636;2023-11-21T00:43:08;9.92;91.05
25945;SHT31;13742;49.306;8.636;2023-11-21T00:44:08;9.92;90.87
25945;SHT31;13742;49.306;8.636;2023-11-21T00:45:08;9.88;90.86
25945;SHT31;13742;49.306;8.636;2023-11-21T00:46:08;9.91;90.96
25945;SHT31;13742;49.306;8.636;2023-11-21T00:47:08;9.89;91.02
25945;SHT31;13742;49.306;8.636;2023-11-21T00:48:08;9.88;91.06
25945;SHT31;13742;49.306;8.636;2023-11-21T00:49:08;9.89;90.93
25945;SHT31;13742;49.306;8.636;2023-11-21T00:50:08;9.89;91.09
25945;SHT31;13742;49.306;8.636;2023-11-21T00:51:08;9.93;91.40
25945;SHT31;13742;49.306;8.636;2023-11-21T00:52:08;9.92;91.10
25945;SHT31;13742;49.306;8.636;2023-11-21T00:53:08;9.92;91.04
25945;SHT31;13742;49.306;8.636;2023-11-21T00:54:08;9.93;91.04
25945;SHT31;13742;49.306;8.636;2023-11-21T00:55:08;9.89;91.01
25945;SHT31;13742;49.306;8.636;2023-11-21T00:56:08;9.89;91.06
25945;SHT31;13742;49.306;8.636;2023-11-21T00:57:08;9.89;90.88
25945;SHT31;13742;49.306;8.636;2023-11-21T00:58:08;9.92;91.05
25945;SHT31;13742;49.306;8.636;2023-11-21T00:59:08;9.89;91.17
25945;SHT31;13742;49.306;8.636;2023-11-21T01:00:14;9.89;91.02
25945;SHT31;13742;49.306;8.636;2023-11-21T01:01:08;9.89;91.03
25945;SHT31;13742;49.306;8.636;2023-11-21T01:02:10;9.91;91.01
25945;SHT31;13742;49.306;8.636;2023-11-21T01:03:08;9.91;91.29
25945;SHT31;13742;49.306;8.636;2023-11-21T01:04:08;9.91;91.20
25945;SHT31;13742;49.306;8.636;2023-11-21T01:05:08;9.92;91.17
25945;SHT31;13742;49.306;8.636;2023-11-21T01:06:09;9.92;91.07
25945;SHT31;13742;49.306;8.636;2023-11-21T01:07:08;9.91;91.14
25945;SHT31;13742;49.306;8.636;2023-11-21T01:08:08;9.89;90.93
25945;SHT31;13742;49.306;8.636;2023-11-21T01:09:08;9.91;91.12
25945;SHT31;13742;49.306;8.636;2023-11-21T01:10:09;9.92;91.06
25945;SHT31;13742;49.306;8.636;2023-11-21T01:11:08;9.92;91.20
25945;SHT31;13742;49.306;8.636;2023-11-21T01:12:08;9.93;91.19
25945;SHT31;13742;49.306;8.636;2023-11-21T01:13:08;9.92;91.19
25945;SHT31;13742;49.306;8.636;2023-11-21T01:14:08;9.95;91.13
25945;SHT31;13742;49.306;8.636;2023-11-21T01:15:08;9.95;91.20
25945;SHT31;13742;49.306;8.636;2023-11-21T01:16:08;9.96;91.25
25945;SHT31;13742;49.306;8.636;2023-11-21T01:17:08;9.96;91.03
25945;SHT31;13742;49.306;8.636;2023-11-21T01:18:08;9.96;91.14
25945;SHT31;13742;49.306;8.636;2023-11-21T01:19:09;9.96;91.20
25945;SHT31;13742;49.306;8.636;2023-11-21T01:20:12;9.96;91.30
25945;SHT31;13742;49.306;8.636;2023-11-21T01:21:09;9.96;91.17
25945;SHT31;13742;49.306;8.636;2023-11-21T01:22:08;9.93;91.17
25945;SHT31;13742;49.306;8.636;2023-11-21T01:23:08;9.96;91.38
25945;SHT31;13742;49.306;8.636;2023-11-21T01:24:08;9.95;91.18
25945;SHT31;13742;49.306;8.636;2023-11-21T01:25:08;9.95;91.22
25945;SHT31;13742;49.306;8.636;2023-11-21T01:26:08;9.93;90.93
25945;SHT31;13742;49.306;8.636;2023-11-21T01:27:08;9.92;90.89
25945;SHT31;13742;49.306;8.636;2023-11-21T01:28:08;9.91;91.14
25945;SHT31;13742;49.306;8.636;2023-11-21T01:29:08;9.89;91.09
25945;SHT31;13742;49.306;8.636;2023-11-21T01:30:10;9.93;91.11
25945;SHT31;13742;49.306;8.636;2023-11-21T01:31:08;9.89;91.20
25945;SHT31;13742;49.306;8.636;2023-11-21T01:32:08;9.93;91.18
25945;SHT31;13742;49.306;8.636;2023-11-21T01:33:08;9.91;91.04
25945;SHT31;13742;49.306;8.636;2023-11-21T01:34:08;9.88;90.92
25945;SHT31;13742;49.306;8.636;2023-11-21T01:35:10;9.91;91.04
25945;SHT31;13742;49.306;8.636;2023-11-21T01:36:08;9.92;91.19
25945;SHT31;13742;49.306;8.636;2023-11-21T01:37:09;9.92;91.13
25945;SHT31;13742;49.306;8.636;2023-11-21T01:38:08;9.92;91.13
25945;SHT31;13742;49.306;8.636;2023-11-21T01:39:10;9.91;91.06
25945;SHT31;13742;49.306;8.636;2023-11-21T01:40:09;9.89;91.01
25945;SHT31;13742;49.306;8.636;2023-11-21T01:41:08;9.91;91.04
25945;SHT31;13742;49.306;8.636;2023-11-21T01:42:08;9.89;91.15
25945;SHT31;13742;49.306;8.636;2023-11-21T01:43:08;9.91;91.06
25945;SHT31;13742;49.306;8.636;2023-11-21T01:44:09;9.88;91.09
25945;SHT31;13742;49.306;8.636;2023-11-21T01:45:09;9.91;91.09
25945;SHT31;13742;49.306;8.636;2023-11-21T01:46:08;9.91;90.91
25945;SHT31;13742;49.306;8.636;2023-11-21T01:47:09;9.91;91.16
25945;SHT31;13742;49.306;8.636;2023-11-21T01:48:08;9.86;91.13
25945;SHT31;13742;49.306;8.636;2023-11-21T01:49:09;9.88;91.10
25945;SHT31;13742;49.306;8.636;2023-11-21T01:50:08;9.82;90.96
25945;SHT31;13742;49.306;8.636;2023-11-21T01:51:08;9.84;90.86
25945;SHT31;13742;49.306;8.636;2023-11-21T01:52:08;9.86;91.01
25945;SHT31;13742;49.306;8.636;2023-11-21T01:53:08;9.84;91.04
25945;SHT31;13742;49.306;8.636;2023-11-21T01:54:08;9.82;91.00
25945;SHT31;13742;49.306;8.636;2023-11-21T01:55:09;9.85;91.14
25945;SHT31;13742;49.306;8.636;2023-11-21T01:56:08;9.85;91.34
25945;SHT31;13742;49.306;8.636;2023-11-21T01:57:08;9.85;91.06
25945;SHT31;13742;49.306;8.636;2023-11-21T01:58:08;9.84;91.27
25945;SHT31;13742;49.306;8.636;2023-11-21T01:59:08;9.84;91.23
25945;SHT31;13742;49.306;8.636;2023-11-21T02:00:13;9.84;91.01
25945;SHT31;13742;49.306;8.636;2023-11-21T02:01:08;9.84;90.87
25945;SHT31;13742;49.306;8.636;2023-11-21T02:02:08;9.85;91.08
25945;SHT31;13742;49.306;8.636;2023-11-21T02:03:08;9.81;91.16
25945;SHT31;13742;49.306;8.636;2023-11-21T02:04:08;9.84;91.05
25945;SHT31;13742;49.306;8.636;2023-11-21T02:05:13;9.82;91.19
25945;SHT31;13742;49.306;8.636;2023-11-21T02:06:08;9.84;91.13
25945;SHT31;13742;49.306;8.636;2023-11-21T02:07:08;9.82;91.06
25945;SHT31;13742;49.306;8.636;2023-11-21T02:08:09;9.82;91.13
25945;SHT31;13742;49.306;8.636;2023-11-21T02:09:09;9.84;91.09
25945;SHT31;13742;49.306;8.636;2023-11-21T02:10:09;9.85;91.14
25945;SHT31;13742;49.306;8.636;2023-11-21T02:11:09;9.86;91.21
25945;SHT31;13742;49.306;8.636;2023-11-21T02:12:08;9.88;91.03
25945;SHT31;13742;49.306;8.636;2023-11-21T02:13:08;9.84;91.22
25945;SHT31;13742;49.306;8.636;2023-11-21T02:14:09;9.86;91.26
25945;SHT31;13742;49.306;8.636;2023-11-21T02:15:15;9.84;90.96
25945;SHT31;13742;49.306;8.636;2023-11-21T02:16:10;9.82;91.06
25945;SHT31;13742;49.306;8.636;2023-11-21T02:17:08;9.85;90.92
25945;SHT31;13742;49.306;8.636;2023-11-21T02:18:10;9.84;90.92
25945;SHT31;13742;49.306;8.636;2023-11-21T02:19:10;9.85;91.00
25945;SHT31;13742;49.306;8.636;2023-11-21T02:20:09;9.84;91.03
25945;SHT31;13742;49.306;8.636;2023-11-21T02:21:08;9.85;90.96
25945;SHT31;13742;49.306;8.636;2023-11-21T02:22:08;9.86;91.07
25945;SHT31;13742;49.306;8.636;2023-11-21T02:23:08;9.84;91.05
25945;SHT31;13742;49.306;8.636;2023-11-21T02:24:08;9.88;91.03
25945;SHT31;13742;49.306;8.636;2023-11-21T02:25:08;9.85;91.01
25945;SHT31;13742;49.306;8.636;2023-11-21T02:26:10;9.84;90.85
25945;SHT31;13742;49.306;8.636;2023-11-21T02:27:08;9.85;90.87
25945;SHT31;13742;49.306;8.636;2023-11-21T02:28:08;9.85;90.82
25945;SHT31;13742;49.306;8.636;2023-11-21T02:29:11;9.84;90.97
25945;SHT31;13742;49.306;8.636;2023-11-21T02:30:12;9.84;90.84
25945;SHT31;13742;49.306;8.636;2023-11-21T02:31:08;9.84;90.95
25945;SHT31;13742;49.306;8.636;2023-11-21T02:32:10;9.85;90.92
25945;SHT31;13742;49.306;8.636;2023-11-21T02:33:08;9.85;91.00
25945;SHT31;13742;49.306;8.636;2023-11-21T02:34:08;9.86;90.90
25945;SHT31;13742;49.306;8.636;2023-11-21T02:35:08;9.84;91.26
25945;SHT31;13742;49.306;8.636;2023-11-21T02:36:08;9.85;91.05
25945;SHT31;13742;49.306;8.636;2023-11-21T02:37:08;9.84;91.36
25945;SHT31;13742;49.306;8.636;2023-11-21T02:38:08;9.84;91.05
25945;SHT31;13742;49.306;8.636;2023-11-21T02:39:09;9.81;91.18
25945;SHT31;13742;49.306;8.636;2023-11-21T02:40:10;9.80;91.18
25945;SHT31;13742;49.306;8.636;2023-11-21T02:41:08;9.82;91.33
25945;SHT31;13742;49.306;8.636;2023-11-21T02:42:08;9.82;91.39
25945;SHT31;13742;49.306;8.636;2023-11-21T02:43:08;9.81;91.41
25945;SHT31;13742;49.306;8.636;2023-11-21T02:44:09;9.82;91.38
25945;SHT31;13742;49.306;8.636;2023-11-21T02:45:09;9.81;91.40
25945;SHT31;13742;49.306;8.636;2023-11-21T02:46:08;9.82;91.51
25945;SHT31;13742;49.306;8.636;2023-11-21T02:47:09;9.81;91.45
25945;SHT31;13742;49.306;8.636;2023-11-21T02:48:08;9.81;91.40
25945;SHT31;13742;49.306;8.636;2023-11-21T02:49:10;9.82;91.33
25945;SHT31;13742;49.306;8.636;2023-11-21T02:50:09;9.80;91.20
25945;SHT31;13742;49.306;8.636;2023-11-21T02:51:08;9.82;91.36
25945;SHT31;13742;49.306;8.636;2023-11-21T02:52:09;9.82;91.32
25945;SHT31;13742;49.306;8.636;2023-11-21T02:53:08;9.82;91.41
25945;SHT31;13742;49.306;8.636;2023-11-21T02:54:08;9.82;91.40
25945;SHT31;13742;49.306;8.636;2023-11-21T02:55:08;9.82;91.50
25945;SHT31;13742;49.306;8.636;2023-11-21T02:56:08;9.78;91.41
25945;SHT31;13742;49.306;8.636;2023-11-21T02:57:08;9.80;91.51
25945;SHT31;13742;49.306;8.636;2023-11-21T02:58:08;9.80;91.48
25945;SHT31;13742;49.306;8.636;2023-11-21T02:59:08;9.78;91.49
25945;SHT31;13742;49.306;8.636;2023-11-21T03:00:09;9.81;91.59
25945;SHT31;13742;49.306;8.636;2023-11-21T03:01:08;9.81;91.41
25945;SHT31;13742;49.306;8.636;2023-11-21T03:02:11;9.81;91.40
25945;SHT31;13742;49.306;8.636;2023-11-21T03:03:08;9.82;91.52
25945;SHT31;13742;49.306;8.636;2023-11-21T03:04:08;9.80;91.55
25945;SHT31;13742;49.306;8.636;2023-11-21T03:05:11;9.78;91.49
25945;SHT31;13742;49.306;8.636;2023-11-21T03:06:08;9.81;91.38
25945;SHT31;13742;49.306;8.636;2023-11-21T03:07:08;9.80;91.45
25945;SHT31;13742;49.306;8.636;2023-11-21T03:08:08;9.78;91.43
25945;SHT31;13742;49.306;8.636;2023-11-21T03:09:08;9.78;91.45
25945;SHT31;13742;49.306;8.636;2023-11-21T03:10:09;9.80;91.90
25945;SHT31;13742;49.306;8.636;2023-11-21T03:11:08;9.81;91.72
25945;SHT31;13742;49.306;8.636;2023-11-21T03:12:10;9.82;91.75
25945;SHT31;13742;49.306;8.636;2023-11-21T03:13:08;9.81;91.56
25945;SHT31;13742;49.306;8.636;2023-11-21T03:14:08;9.80;91.50
25945;SHT31;13742;49.306;8.636;2023-11-21T03:15:08;9.78;91.48
25945;SHT31;13742;49.306;8.636;2023-11-21T03:16:09;9.81;91.70
25945;SHT31;13742;49.306;8.636;2023-11-21T03:17:08;9.78;91.88
25945;SHT31;13742;49.306;8.636;2023-11-21T03:18:08;9.80;91.82
25945;SHT31;13742;49.306;8.636;2023-11-21T03:19:08;9.80;91.84
25945;SHT31;13742;49.306;8.636;2023-11-21T03:20:11;9.78;91.80
25945;SHT31;13742;49.306;8.636;2023-11-21T03:21:09;9.76;91.65
25945;SHT31;13742;49.306;8.636;2023-11-21T03:22:08;9.75;91.65
25945;SHT31;13742;49.306;8.636;2023-11-21T03:23:08;9.76;91.68
25945;SHT31;13742;49.306;8.636;2023-11-21T03:24:08;9.75;91.70
25945;SHT31;13742;49.306;8.636;2023-11-21T03:25:10;9.80;91.75
25945;SHT31;13742;49.306;8.636;2023-11-21T03:26:11;9.76;92.31
25945;SHT31;13742;49.306;8.636;2023-11-21T03:27:08;9.78;91.93
25945;SHT31;13742;49.306;8.636;2023-11-21T03:28:08;9.78;91.75
25945;SHT31;13742;49.306;8.636;2023-11-21T03:29:08;9.78;92.06
25945;SHT31;13742;49.306;8.636;2023-11-21T03:30:09;9.76;92.06
25945;SHT31;13742;49.306;8.636;2023-11-21T03:31:09;9.76;91.74
25945;SHT31;13742;49.306;8.636;2023-11-21T03:32:08;9.76;91.99
25945;SHT31;13742;49.306;8.636;2023-11-21T03:33:08;9.75;91.94
25945;SHT31;13742;49.306;8.636;2023-11-21T03:34:14;9.75;91.94
25945;SHT31;13742;49.306;8.636;2023-11-21T03:35:08;9.74;92.22
25945;SHT31;13742;49.306;8.636;2023-11-21T03:36:08;9.71;92.17
25945;SHT31;13742;49.306;8.636;2023-11-21T03:37:08;9.69;92.39
25945;SHT31;13742;49.306;8.636;2023-11-21T03:38:09;9.72;92.14
25945;SHT31;13742;49.306;8.636;2023-11-21T03:39:08;9.74;92.10
25945;SHT31;13742;49.306;8.636;2023-11-21T03:40:09;9.74;92.12
25945;SHT31;13742;49.306;8.636;2023-11-21T03:41:10;9.71;91.96
25945;SHT31;13742;49.306;8.636;2023-11-21T03:42:08;9.72;92.07
25945;SHT31;13742;49.306;8.636;2023-11-21T03:43:08;9.72;92.26
25945;SHT31;13742;49.306;8.636;2023-11-21T03:44:08;9.71;92.17
25945;SHT31;13742;49.306;8.636;2023-11-21T03:45:09;9.72;92.12
25945;SHT31;13742;49.306;8.636;2023-11-21T03:46:08;9.74;92.26
25945;SHT31;13742;49.306;8.636;2023-11-21T03:47:08;9.72;92.30
25945;SHT31;13742;49.306;8.636;2023-11-21T03:48:08;9.72;92.39
25945;SHT31;13742;49.306;8.636;2023-11-21T03:49:08;9.71;92.26
25945;SHT31;13742;49.306;8.636;2023-11-21T03:50:09;9.74;92.16
25945;SHT31;13742;49.306;8.636;2023-11-21T03:51:08;9.74;92.36
25945;SHT31;13742;49.306;8.636;2023-11-21T03:52:09;9.71;92.35
25945;SHT31;13742;49.306;8.636;2023-11-21T03:53:08;9.71;92.34
25945;SHT31;13742;49.306;8.636;2023-11-21T03:54:08;9.72;92.26
25945;SHT31;13742;49.306;8.636;2023-11-21T03:55:08;9.71;92.45
25945;SHT31;13742;49.306;8.636;2023-11-21T03:56:08;9.72;92.26
25945;SHT31;13742;49.306;8.636;2023-11-21T03:57:08;9.72;92.27
25945;SHT31;13742;49.306;8.636;2023-11-21T03:58:08;9.74;92.27
25945;SHT31;13742;49.306;8.636;2023-11-21T03:59:08;9.75;92.30
25945;SHT31;13742;49.306;8.636;2023-11-21T04:00:11;9.75;92.23
25945;SHT31;13742;49.306;8.636;2023-11-21T04:01:08;9.72;93.00
25945;SHT31;13742;49.306;8.636;2023-11-21T04:02:08;9.74;92.52
25945;SHT31;13742;49.306;8.636;2023-11-21T04:03:08;9.74;92.46
25945;SHT31;13742;49.306;8.636;2023-11-21T04:04:08;9.76;92.64
25945;SHT31;13742;49.306;8.636;2023-11-21T04:05:08;9.75;92.66
25945;SHT31;13742;49.306;8.636;2023-11-21T04:06:08;9.76;92.51
25945;SHT31;13742;49.306;8.636;2023-11-21T04:07:08;9.76;92.68
25945;SHT31;13742;49.306;8.636;2023-11-21T04:08:08;9.78;92.67
25945;SHT31;13742;49.306;8.636;2023-11-21T04:09:08;9.78;92.58
25945;SHT31;13742;49.306;8.636;2023-11-21T04:10:09;9.76;92.62
25945;SHT31;13742;49.306;8.636;2023-11-21T04:11:08;9.76;92.39
25945;SHT31;13742;49.306;8.636;2023-11-21T04:12:09;9.75;92.50
25945;SHT31;13742;49.306;8.636;2023-11-21T04:13:08;9.75;92.47
25945;SHT31;13742;49.306;8.636;2023-11-21T04:14:09;9.76;92.45
25945;SHT31;13742;49.306;8.636;2023-11-21T04:15:09;9.76;92.57
25945;SHT31;13742;49.306;8.636;2023-11-21T04:16:08;9.74;92.49
25945;SHT31;13742;49.306;8.636;2023-11-21T04:17:08;9.75;92.66
25945;SHT31;13742;49.306;8.636;2023-11-21T04:18:08;9.72;92.49
25945;SHT31;13742;49.306;8.636;2023-11-21T04:19:10;9.76;92.84
25945;SHT31;13742;49.306;8.636;2023-11-21T04:20:09;9.75;92.49
25945;SHT31;13742;49.306;8.636;2023-11-21T04:21:08;9.74;92.67
25945;SHT31;13742;49.306;8.636;2023-11-21T04:22:08;9.75;92.86
25945;SHT31;13742;49.306;8.636;2023-11-21T04:23:10;9.76;92.89
25945;SHT31;13742;49.306;8.636;2023-11-21T04:24:08;9.75;92.80
25945;SHT31;13742;49.306;8.636;2023-11-21T04:25:11;9.72;92.91
25945;SHT31;13742;49.306;8.636;2023-11-21T04:26:08;9.71;93.06
25945;SHT31;13742;49.306;8.636;2023-11-21T04:27:08;9.76;92.97
25945;SHT31;13742;49.306;8.636;2023-11-21T04:28:08;9.74;93.04
25945;SHT31;13742;49.306;8.636;2023-11-21T04:29:08;9.72;93.03
25945;SHT31;13742;49.306;8.636;2023-11-21T04:30:08;9.72;92.80
25945;SHT31;13742;49.306;8.636;2023-11-21T04:31:08;9.72;92.80
25945;SHT31;13742;49.306;8.636;2023-11-21T04:32:08;9.74;93.51
25945;SHT31;13742;49.306;8.636;2023-11-21T04:33:08;9.72;92.93
25945;SHT31;13742;49.306;8.636;2023-11-21T04:34:08;9.72;93.43
25945;SHT31;13742;49.306;8.636;2023-11-21T04:35:08;9.72;93.50
25945;SHT31;13742;49.306;8.636;2023-11-21T04:36:08;9.74;93.07
25945;SHT31;13742;49.306;8.636;2023-11-21T04:37:09;9.72;92.99
25945;SHT31;13742;49.306;8.636;2023-11-21T04:38:08;9.71;93.11
25945;SHT31;13742;49.306;8.636;2023-11-21T04:39:08;9.72;92.79
25945;SHT31;13742;49.306;8.636;2023-11-21T04:40:09;9.71;92.66
25945;SHT31;13742;49.306;8.636;2023-11-21T04:41:08;9.69;92.94
25945;SHT31;13742;49.306;8.636;2023-11-21T04:42:07;9.72;92.82
25945;SHT31;13742;49.306;8.636;2023-11-21T04:43:08;9.72;93.01
25945;SHT31;13742;49.306;8.636;2023-11-21T04:44:08;9.74;92.97
25945;SHT31;13742;49.306;8.636;2023-11-21T04:45:11;9.72;93.49
25945;SHT31;13742;49.306;8.636;2023-11-21T04:46:08;9.74;93.22
25945;SHT31;13742;49.306;8.636;2023-11-21T04:47:08;9.76;93.21
25945;SHT31;13742;49.306;8.636;2023-11-21T04:48:08;9.74;93.02
25945;SHT31;13742;49.306;8.636;2023-11-21T04:49:08;9.76;92.87
25945;SHT31;13742;49.306;8.636;2023-11-21T04:50:08;9.74;93.04
25945;SHT31;13742;49.306;8.636;2023-11-21T04:51:08;9.75;92.98
25945;SHT31;13742;49.306;8.636;2023-11-21T04:52:09;9.69;92.96
25945;SHT31;13742;49.306;8.636;2023-11-21T04:53:07;9.72;93.08
25945;SHT31;13742;49.306;8.636;2023-11-21T04:54:08;9.76;93.13
25945;SHT31;13742;49.306;8.636;2023-11-21T04:55:10;9.72;93.55
25945;SHT31;13742;49.306;8.636;2023-11-21T04:56:08;9.74;93.86
25945;SHT31;13742;49.306;8.636;2023-11-21T04:57:08;9.74;93.41
25945;SHT31;13742;49.306;8.636;2023-11-21T04:58:08;9.74;93.16
25945;SHT31;13742;49.306;8.636;2023-11-21T04:59:08;9.75;93.30
25945;SHT31;13742;49.306;8.636;2023-11-21T05:00:09;9.72;93.22
25945;SHT31;13742;49.306;8.636;2023-11-21T05:01:08;9.72;93.04
25945;SHT31;13742;49.306;8.636;2023-11-21T05:02:08;9.74;93.04
25945;SHT31;13742;49.306;8.636;2023-11-21T05:03:09;9.72;93.00
25945;SHT31;13742;49.306;8.636;2023-11-21T05:04:08;9.72;92.83
25945;SHT31;13742;49.306;8.636;2023-11-21T05:05:10;9.72;93.39
25945;SHT31;13742;49.306;8.636;2023-11-21T05:06:10;9.69;93.22
25945;SHT31;13742;49.306;8.636;2023-11-21T05:07:08;9.66;93.04
25945;SHT31;13742;49.306;8.636;2023-11-21T05:08:08;9.69;92.99
25945;SHT31;13742;49.306;8.636;2023-11-21T05:09:11;9.68;93.08
25945;SHT31;13742;49.306;8.636;2023-11-21T05:10:10;9.68;93.08
25945;SHT31;13742;49.306;8.636;2023-11-21T05:11:10;9.68;93.09
25945;SHT31;13742;49.306;8.636;2023-11-21T05:12:08;9.65;93.24
25945;SHT31;13742;49.306;8.636;2023-11-21T05:13:10;9.66;93.12
25945;SHT31;13742;49.306;8.636;2023-11-21T05:14:08;9.66;93.18
25945;SHT31;13742;49.306;8.636;2023-11-21T05:15:14;9.66;93.36
25945;SHT31;13742;49.306;8.636;2023-11-21T05:16:08;9.66;93.52
25945;SHT31;13742;49.306;8.636;2023-11-21T05:17:08;9.68;93.46
25945;SHT31;13742;49.306;8.636;2023-11-21T05:18:08;9.65;93.47
25945;SHT31;13742;49.306;8.636;2023-11-21T05:19:09;9.66;93.30
25945;SHT31;13742;49.306;8.636;2023-11-21T05:20:10;9.66;93.28
25945;SHT31;13742;49.306;8.636;2023-11-21T05:21:07;9.66;93.22
25945;SHT31;13742;49.306;8.636;2023-11-21T05:22:08;9.68;93.15
25945;SHT31;13742;49.306;8.636;2023-11-21T05:23:08;9.66;93.18
25945;SHT31;13742;49.306;8.636;2023-11-21T05:24:08;9.64;93.10
25945;SHT31;13742;49.306;8.636;2023-11-21T05:25:08;9.64;93.15
25945;SHT31;13742;49.306;8.636;2023-11-21T05:26:07;9.65;93.13
25945;SHT31;13742;49.306;8.636;2023-11-21T05:27:09;9.64;93.17
25945;SHT31;13742;49.306;8.636;2023-11-21T05:28:07;9.65;93.16
25945;SHT31;13742;49.306;8.636;2023-11-21T05:29:08;9.62;93.07
25945;SHT31;13742;49.306;8.636;2023-11-21T05:30:13;9.64;93.11
25945;SHT31;13742;49.306;8.636;2023-11-21T05:31:07;9.64;93.27
25945;SHT31;13742;49.306;8.636;2023-11-21T05:32:07;9.66;93.46
25945;SHT31;13742;49.306;8.636;2023-11-21T05:33:07;9.64;93.31
25945;SHT31;13742;49.306;8.636;2023-11-21T05:34:07;9.62;93.13
25945;SHT31;13742;49.306;8.636;2023-11-21T05:35:12;9.64;92.97
25945;SHT31;13742;49.306;8.636;2023-11-21T05:36:08;9.62;93.13
25945;SHT31;13742;49.306;8.636;2023-11-21T05:37:07;9.61;93.25
25945;SHT31;13742;49.306;8.636;2023-11-21T05:38:07;9.59;93.12
25945;SHT31;13742;49.306;8.636;2023-11-21T05:39:07;9.59;93.07
25945;SHT31;13742;49.306;8.636;2023-11-21T05:40:08;9.59;93.14
25945;SHT31;13742;49.306;8.636;2023-11-21T05:41:11;9.59;93.04
25945;SHT31;13742;49.306;8.636;2023-11-21T05:42:09;9.59;93.09
25945;SHT31;13742;49.306;8.636;2023-11-21T05:43:07;9.58;93.19
25945;SHT31;13742;49.306;8.636;2023-11-21T05:44:07;9.58;93.17
25945;SHT31;13742;49.306;8.636;2023-11-21T05:45:11;9.58;93.20
25945;SHT31;13742;49.306;8.636;2023-11-21T05:46:09;9.55;93.12
25945;SHT31;13742;49.306;8.636;2023-11-21T05:47:09;9.58;93.17
25945;SHT31;13742;49.306;8.636;2023-11-21T05:48:07;9.59;93.17
25945;SHT31;13742;49.306;8.636;2023-11-21T05:49:08;9.58;93.10
25945;SHT31;13742;49.306;8.636;2023-11-21T05:50:11;9.59;93.26
25945;SHT31;13742;49.306;8.636;2023-11-21T05:51:08;9.59;93.33
25945;SHT31;13742;49.306;8.636;2023-11-21T05:52:07;9.57;93.22
25945;SHT31;13742;49.306;8.636;2023-11-21T05:53:10;9.55;93.12
25945;SHT31;13742;49.306;8.636;2023-11-21T05:54:08;9.58;93.08
25945;SHT31;13742;49.306;8.636;2023-11-21T05:55:08;9.59;93.10
25945;SHT31;13742;49.306;8.636;2023-11-21T05:56:08;9.58;93.32
25945;SHT31;13742;49.306;8.636;2023-11-21T05:57:08;9.58;93.51
25945;SHT31;13742;49.306;8.636;2023-11-21T05:58:08;9.57;93.29
25945;SHT31;13742;49.306;8.636;2023-11-21T05:59:07;9.59;93.53
25945;SHT31;13742;49.306;8.636;2023-11-21T06:00:14;9.55;93.39
25945;SHT31;13742;49.306;8.636;2023-11-21T06:01:09;9.55;93.41
25945;SHT31;13742;49.306;8.636;2023-11-21T06:02:07;9.53;93.19
25945;SHT31;13742;49.306;8.636;2023-11-21T06:03:08;9.55;93.68
25945;SHT31;13742;49.306;8.636;2023-11-21T06:04:10;9.55;93.38
25945;SHT31;13742;49.306;8.636;2023-11-21T06:05:08;9.57;93.38
25945;SHT31;13742;49.306;8.636;2023-11-21T06:06:08;9.55;93.19
25945;SHT31;13742;49.306;8.636;2023-11-21T06:07:07;9.54;93.27
25945;SHT31;13742;49.306;8.636;2023-11-21T06:08:07;9.57;93.75
25945;SHT31;13742;49.306;8.636;2023-11-21T06:09:09;9.58;94.07
25945;SHT31;13742;49.306;8.636;2023-11-21T06:10:12;9.55;93.57
25945;SHT31;13742;49.306;8.636;2023-11-21T06:11:07;9.57;93.49
25945;SHT31;13742;49.306;8.636;2023-11-21T06:12:08;9.57;93.37
25945;SHT31;13742;49.306;8.636;2023-11-21T06:13:08;9.57;93.49
25945;SHT31;13742;49.306;8.636;2023-11-21T06:14:09;9.54;93.35
25945;SHT31;13742;49.306;8.636;2023-11-21T06:15:10;9.57;93.59
25945;SHT31;13742;49.306;8.636;2023-11-21T06:16:08;9.59;93.56
25945;SHT31;13742;49.306;8.636;2023-11-21T06:17:09;9.59;93.68
25945;SHT31;13742;49.306;8.636;2023-11-21T06:18:10;9.57;93.44
25945;SHT31;13742;49.306;8.636;2023-11-21T06:19:08;9.58;93.64
25945;SHT31;13742;49.306;8.636;2023-11-21T06:20:11;9.58;93.48
25945;SHT31;13742;49.306;8.636;2023-11-21T06:21:09;9.57;94.17
25945;SHT31;13742;49.306;8.636;2023-11-21T06:22:08;9.57;93.71
25945;SHT31;13742;49.306;8.636;2023-11-21T06:23:09;9.54;93.90
25945;SHT31;13742;49.306;8.636;2023-11-21T06:24:07;9.55;93.60